sensor_id;sensor_type;location;lat;lon;timestamp;pressure;altitude;pressure_sealevel;temperature;humidity
70900;BME280;67902;52.154;5.430;2024-03-02T00:00:27;99867.72;;;8.63;77.41
70900;BME280;67902;52.154;5.430;2024-03-02T00:02:54;99875.31;;;8.66;77.36
70900;BME280;67902;52.154;5.430;2024-03-02T00:05:21;99863.38;;;8.62;78.46
70900;BME280;67902;52.154;5.430;2024-03-02T00:07:55;99871.78;;;8.65;78.01
70900;BME280;67902;52.154;5.430;2024-03-02T00:10:25;99867.47;;;8.64;77.73
70900;BME280;67902;52.154;5.430;2024-03-02T00:12:56;99869.41;;;8.69;78.32
70900;BME280;67902;52.154;5.430;2024-03-02T00:18:04;99877.22;;;8.70;77.33
70900;BME280;67902;52.154;5.430;2024-03-02T00:20:31;99876.44;;;8.70;77.65
70900;BME280;67902;52.154;5.430;2024-03-02T00:23:06;99884.81;;;8.73;78.38
70900;BME280;67902;52.154;5.430;2024-03-02T00:28:29;99895.56;;;8.68;78.14
70900;BME280;67902;52.154;5.430;2024-03-02T00:33:26;99929.00;;;8.67;78.55
70900;BME280;67902;52.154;5.430;2024-03-02T00:35:54;99922.22;;;8.65;79.16
70900;BME280;67902;52.154;5.430;2024-03-02T00:38:21;99951.38;;;8.63;79.67
70900;BME280;67902;52.154;5.430;2024-03-02T00:40:48;99936.81;;;8.64;79.40
70900;BME280;67902;52.154;5.430;2024-03-02T00:43:41;99950.88;;;8.66;79.45
70900;BME280;67902;52.154;5.430;2024-03-02T00:46:18;99956.75;;;8.63;79.66
70900;BME280;67902;52.154;5.430;2024-03-02T00:48:48;99995.59;;;8.62;80.93
70900;BME280;67902;52.154;5.430;2024-03-02T00:51:17;99966.41;;;8.59;82.46
70900;BME280;67902;52.154;5.430;2024-03-02T00:53:44;99970.59;;;8.45;83.29
70900;BME280;67902;52.154;5.430;2024-03-02T00:56:11;99970.44;;;8.35;84.61
70900;BME280;67902;52.154;5.430;2024-03-02T00:58:39;99976.03;;;8.28;84.36
70900;BME280;67902;52.154;5.430;2024-03-02T01:01:06;99975.38;;;8.21;86.98
70900;BME280;67902;52.154;5.430;2024-03-02T01:03:34;99978.66;;;8.06;89.73
70900;BME280;67902;52.154;5.430;2024-03-02T01:06:00;99981.97;;;7.92;90.72
70900;BME280;67902;52.154;5.430;2024-03-02T01:08:27;99992.94;;;7.85;90.60
70900;BME280;67902;52.154;5.430;2024-03-02T01:10:53;99987.22;;;7.82;91.19
70900;BME280;67902;52.154;5.430;2024-03-02T01:13:24;99976.91;;;7.79;91.36
70900;BME280;67902;52.154;5.430;2024-03-02T01:15:50;99989.00;;;7.76;91.00
70900;BME280;67902;52.154;5.430;2024-03-02T01:18:17;99990.00;;;7.70;91.62
70900;BME280;67902;52.154;5.430;2024-03-02T01:20:44;99981.50;;;7.62;93.55
70900;BME280;67902;52.154;5.430;2024-03-02T01:23:10;99981.34;;;7.51;95.14
70900;BME280;67902;52.154;5.430;2024-03-02T01:25:37;99978.81;;;7.45;95.87
70900;BME280;67902;52.154;5.430;2024-03-02T01:28:04;99997.03;;;7.38;96.01
70900;BME280;67902;52.154;5.430;2024-03-02T01:30:31;99994.72;;;7.30;96.80
70900;BME280;67902;52.154;5.430;2024-03-02T01:32:57;100000.84;;;7.25;97.43
70900;BME280;67902;52.154;5.430;2024-03-02T01:35:25;99999.69;;;7.21;97.24
70900;BME280;67902;52.154;5.430;2024-03-02T01:37:53;99997.00;;;7.21;97.01
70900;BME280;67902;52.154;5.430;2024-03-02T01:40:19;99993.50;;;7.21;97.87
70900;BME280;67902;52.154;5.430;2024-03-02T01:42:47;99998.28;;;7.19;97.67
70900;BME280;67902;52.154;5.430;2024-03-02T01:45:13;99996.66;;;7.18;98.12
70900;BME280;67902;52.154;5.430;2024-03-02T01:47:40;99999.38;;;7.18;98.28
70900;BME280;67902;52.154;5.430;2024-03-02T01:50:07;100004.19;;;7.16;98.61
70900;BME280;67902;52.154;5.430;2024-03-02T01:52:33;100010.13;;;7.18;98.69
70900;BME280;67902;52.154;5.430;2024-03-02T01:55:00;100004.97;;;7.16;98.42
70900;BME280;67902;52.154;5.430;2024-03-02T01:57:26;100003.59;;;7.14;98.68
70900;BME280;67902;52.154;5.430;2024-03-02T01:59:53;100001.38;;;7.11;99.89
70900;BME280;67902;52.154;5.430;2024-03-02T02:02:20;100003.75;;;7.07;99.83
70900;BME280;67902;52.154;5.430;2024-03-02T02:04:47;99991.56;;;7.05;100.00
70900;BME280;67902;52.154;5.430;2024-03-02T02:07:13;100000.72;;;7.04;100.00
70900;BME280;67902;52.154;5.430;2024-03-02T02:09:41;99993.69;;;7.03;100.00
70900;BME280;67902;52.154;5.430;2024-03-02T02:12:09;99992.31;;;7.00;100.00
70900;BME280;67902;52.154;5.430;2024-03-02T02:14:36;100006.25;;;6.97;100.00
70900;BME280;67902;52.154;5.430;2024-03-02T02:17:03;100015.13;;;6.97;100.00
70900;BME280;67902;52.154;5.430;2024-03-02T02:19:29;100017.25;;;6.95;100.00
70900;BME280;67902;52.154;5.430;2024-03-02T02:21:56;100005.09;;;6.93;100.00
70900;BME280;67902;52.154;5.430;2024-03-02T02:24:22;100010.97;;;6.90;100.00
70900;BME280;67902;52.154;5.430;2024-03-02T02:26:49;100010.06;;;6.84;100.00
70900;BME280;67902;52.154;5.430;2024-03-02T02:29:16;99998.13;;;6.80;100.00
70900;BME280;67902;52.154;5.430;2024-03-02T02:31:42;99993.69;;;6.74;100.00
70900;BME280;67902;52.154;5.430;2024-03-02T02:34:09;99994.66;;;6.68;100.00
70900;BME280;67902;52.154;5.430;2024-03-02T02:36:37;99994.34;;;6.65;100.00
70900;BME280;67902;52.154;5.430;2024-03-02T02:39:07;99998.31;;;6.62;100.00
70900;BME280;67902;52.154;5.430;2024-03-02T02:41:37;100007.91;;;6.58;100.00
70900;BME280;67902;52.154;5.430;2024-03-02T02:44:04;100012.47;;;6.58;100.00
70900;BME280;67902;52.154;5.430;2024-03-02T02:46:31;100010.03;;;6.56;100.00
70900;BME280;67902;52.154;5.430;2024-03-02T02:48:57;100012.94;;;6.55;100.00
70900;BME280;67902;52.154;5.430;2024-03-02T02:51:24;100010.72;;;6.52;100.00
70900;BME280;67902;52.154;5.430;2024-03-02T02:53:51;100010.97;;;6.50;100.00
70900;BME280;67902;52.154;5.430;2024-03-02T02:56:18;100027.56;;;6.47;100.00
70900;BME280;67902;52.154;5.430;2024-03-02T02:58:44;100006.06;;;6.47;100.00
70900;BME280;67902;52.154;5.430;2024-03-02T03:01:11;100021.63;;;6.45;100.00
70900;BME280;67902;52.154;5.430;2024-03-02T03:03:37;100025.63;;;6.43;100.00
70900;BME280;67902;52.154;5.430;2024-03-02T03:06:04;100021.50;;;6.40;100.00
70900;BME280;67902;52.154;5.430;2024-03-02T03:08:30;100031.69;;;6.38;100.00
70900;BME280;67902;52.154;5.430;2024-03-02T03:10:57;100015.31;;;6.39;100.00
70900;BME280;67902;52.154;5.430;2024-03-02T03:13:23;100015.56;;;6.38;100.00
70900;BME280;67902;52.154;5.430;2024-03-02T03:15:50;100010.66;;;6.35;100.00
70900;BME280;67902;52.154;5.430;2024-03-02T03:18:16;100012.50;;;6.34;100.00
70900;BME280;67902;52.154;5.430;2024-03-02T03:20:43;100013.81;;;6.32;100.00
70900;BME280;67902;52.154;5.430;2024-03-02T03:23:09;100010.53;;;6.30;100.00
70900;BME280;67902;52.154;5.430;2024-03-02T03:25:44;100016.16;;;6.28;100.00
70900;BME280;67902;52.154;5.430;2024-03-02T03:28:10;100022.22;;;6.24;100.00
70900;BME280;67902;52.154;5.430;2024-03-02T03:30:38;100022.94;;;6.19;100.00
70900;BME280;67902;52.154;5.430;2024-03-02T03:33:05;100031.47;;;6.16;100.00
70900;BME280;67902;52.154;5.430;2024-03-02T03:35:35;100041.41;;;6.16;100.00
70900;BME280;67902;52.154;5.430;2024-03-02T03:38:02;100035.22;;;6.15;100.00
70900;BME280;67902;52.154;5.430;2024-03-02T03:40:29;100027.16;;;6.15;100.00
70900;BME280;67902;52.154;5.430;2024-03-02T03:42:55;100036.50;;;6.13;100.00
70900;BME280;67902;52.154;5.430;2024-03-02T03:45:23;100030.09;;;6.14;100.00
70900;BME280;67902;52.154;5.430;2024-03-02T03:47:53;100035.47;;;6.14;100.00
70900;BME280;67902;52.154;5.430;2024-03-02T03:50:19;100026.09;;;6.16;100.00
70900;BME280;67902;52.154;5.430;2024-03-02T03:52:46;100040.94;;;6.19;100.00
70900;BME280;67902;52.154;5.430;2024-03-02T03:55:13;100043.38;;;6.20;100.00
70900;BME280;67902;52.154;5.430;2024-03-02T03:57:40;100042.91;;;6.23;100.00
70900;BME280;67902;52.154;5.430;2024-03-02T04:00:07;100038.97;;;6.26;100.00
70900;BME280;67902;52.154;5.430;2024-03-02T04:02:36;100039.53;;;6.28;100.00
70900;BME280;67902;52.154;5.430;2024-03-02T04:05:03;100035.09;;;6.33;100.00
70900;BME280;67902;52.154;5.430;2024-03-02T04:07:36;100039.75;;;6.38;100.00
70900;BME280;67902;52.154;5.430;2024-03-02T04:10:07;100043.25;;;6.38;100.00
70900;BME280;67902;52.154;5.430;2024-03-02T04:12:35;100038.69;;;6.39;100.00
70900;BME280;67902;52.154;5.430;2024-03-02T04:15:06;100047.91;;;6.43;100.00
70900;BME280;67902;52.154;5.430;2024-03-02T04:17:33;100052.81;;;6.46;100.00
70900;BME280;67902;52.154;5.430;2024-03-02T04:20:00;100049.56;;;6.44;100.00
70900;BME280;67902;52.154;5.430;2024-03-02T04:22:27;100059.84;;;6.47;100.00
70900;BME280;67902;52.154;5.430;2024-03-02T04:24:54;100060.19;;;6.51;100.00
70900;BME280;67902;52.154;5.430;2024-03-02T04:27:21;100062.06;;;6.50;100.00
70900;BME280;67902;52.154;5.430;2024-03-02T04:29:48;100060.66;;;6.48;100.00
70900;BME280;67902;52.154;5.430;2024-03-02T04:32:14;100058.81;;;6.48;100.00
70900;BME280;67902;52.154;5.430;2024-03-02T04:34:41;100060.41;;;6.49;100.00
70900;BME280;67902;52.154;5.430;2024-03-02T04:37:07;100056.13;;;6.48;100.00
70900;BME280;67902;52.154;5.430;2024-03-02T04:39:35;100061.50;;;6.48;100.00
70900;BME280;67902;52.154;5.430;2024-03-02T04:42:02;100064.75;;;6.50;100.00
70900;BME280;67902;52.154;5.430;2024-03-02T04:44:29;100070.13;;;6.50;100.00
70900;BME280;67902;52.154;5.430;2024-03-02T04:46:56;100078.19;;;6.50;100.00
70900;BME280;67902;52.154;5.430;2024-03-02T04:49:22;100085.56;;;6.55;100.00
70900;BME280;67902;52.154;5.430;2024-03-02T04:51:49;100074.78;;;6.55;100.00
70900;BME280;67902;52.154;5.430;2024-03-02T04:54:15;100082.03;;;6.54;100.00
70900;BME280;67902;52.154;5.430;2024-03-02T04:56:42;100091.19;;;6.53;100.00
70900;BME280;67902;52.154;5.430;2024-03-02T04:59:19;100090.59;;;6.51;100.00
70900;BME280;67902;52.154;5.430;2024-03-02T05:01:46;100088.97;;;6.50;100.00
70900;BME280;67902;52.154;5.430;2024-03-02T05:04:13;100095.38;;;6.49;100.00
70900;BME280;67902;52.154;5.430;2024-03-02T05:06:40;100085.91;;;6.47;100.00
70900;BME280;67902;52.154;5.430;2024-03-02T05:09:08;100094.81;;;6.47;100.00
70900;BME280;67902;52.154;5.430;2024-03-02T05:11:35;100092.59;;;6.44;100.00
70900;BME280;67902;52.154;5.430;2024-03-02T05:14:05;100093.97;;;6.47;100.00
70900;BME280;67902;52.154;5.430;2024-03-02T05:16:36;100098.06;;;6.49;100.00
70900;BME280;67902;52.154;5.430;2024-03-02T05:19:04;100090.00;;;6.49;100.00
70900;BME280;67902;52.154;5.430;2024-03-02T05:21:33;100100.75;;;6.49;100.00
70900;BME280;67902;52.154;5.430;2024-03-02T05:24:00;100096.19;;;6.50;100.00
70900;BME280;67902;52.154;5.430;2024-03-02T05:26:26;100099.16;;;6.48;100.00
70900;BME280;67902;52.154;5.430;2024-03-02T05:28:53;100094.81;;;6.47;99.84
70900;BME280;67902;52.154;5.430;2024-03-02T05:31:19;100098.53;;;6.46;99.46
70900;BME280;67902;52.154;5.430;2024-03-02T05:33:46;100099.94;;;6.49;99.49
70900;BME280;67902;52.154;5.430;2024-03-02T05:36:13;100100.19;;;6.47;98.77
70900;BME280;67902;52.154;5.430;2024-03-02T05:38:39;100097.50;;;6.47;98.49
70900;BME280;67902;52.154;5.430;2024-03-02T05:41:06;100106.59;;;6.46;98.78
70900;BME280;67902;52.154;5.430;2024-03-02T05:43:32;100093.88;;;6.41;97.68
70900;BME280;67902;52.154;5.430;2024-03-02T05:45:59;100093.88;;;6.41;96.46
70900;BME280;67902;52.154;5.430;2024-03-02T05:48:26;100096.09;;;6.33;97.24
70900;BME280;67902;52.154;5.430;2024-03-02T05:50:52;100110.94;;;6.24;96.21
70900;BME280;67902;52.154;5.430;2024-03-02T05:53:19;100100.66;;;6.21;95.58
70900;BME280;67902;52.154;5.430;2024-03-02T05:55:45;100094.69;;;6.19;95.54
70900;BME280;67902;52.154;5.430;2024-03-02T05:58:11;100113.06;;;6.22;94.72
70900;BME280;67902;52.154;5.430;2024-03-02T06:00:38;100114.34;;;6.31;94.11
70900;BME280;67902;52.154;5.430;2024-03-02T06:03:04;100108.97;;;6.31;94.08
70900;BME280;67902;52.154;5.430;2024-03-02T06:05:32;100127.44;;;6.27;94.74
70900;BME280;67902;52.154;5.430;2024-03-02T06:07:58;100115.84;;;6.27;94.55
70900;BME280;67902;52.154;5.430;2024-03-02T06:10:25;100126.59;;;6.27;94.40
70900;BME280;67902;52.154;5.430;2024-03-02T06:12:52;100128.94;;;6.23;94.98
70900;BME280;67902;52.154;5.430;2024-03-02T06:15:18;100124.84;;;6.21;94.78
70900;BME280;67902;52.154;5.430;2024-03-02T06:17:45;100131.41;;;6.25;95.10
70900;BME280;67902;52.154;5.430;2024-03-02T06:20:11;100131.88;;;6.22;95.87
70900;BME280;67902;52.154;5.430;2024-03-02T06:22:38;100134.44;;;6.17;96.56
70900;BME280;67902;52.154;5.430;2024-03-02T06:25:05;100135.25;;;6.17;97.27
70900;BME280;67902;52.154;5.430;2024-03-02T06:27:31;100143.09;;;6.19;97.36
70900;BME280;67902;52.154;5.430;2024-03-02T06:29:58;100145.78;;;6.19;97.75
70900;BME280;67902;52.154;5.430;2024-03-02T06:32:24;100145.53;;;6.20;97.83
70900;BME280;67902;52.154;5.430;2024-03-02T06:34:51;100144.03;;;6.24;97.56
70900;BME280;67902;52.154;5.430;2024-03-02T06:37:18;100155.34;;;6.26;97.57
70900;BME280;67902;52.154;5.430;2024-03-02T06:39:44;100147.66;;;6.30;97.92
70900;BME280;67902;52.154;5.430;2024-03-02T06:42:11;100158.41;;;6.30;98.63
70900;BME280;67902;52.154;5.430;2024-03-02T06:44:37;100158.41;;;6.30;97.88
70900;BME280;67902;52.154;5.430;2024-03-02T06:47:04;100163.31;;;6.33;97.22
70900;BME280;67902;52.154;5.430;2024-03-02T06:49:31;100152.31;;;6.34;97.70
70900;BME280;67902;52.154;5.430;2024-03-02T06:51:57;100154.78;;;6.36;97.85
70900;BME280;67902;52.154;5.430;2024-03-02T06:54:24;100154.78;;;6.36;97.28
70900;BME280;67902;52.154;5.430;2024-03-02T06:56:50;100158.88;;;6.50;97.26
70900;BME280;67902;52.154;5.430;2024-03-02T06:59:17;100154.09;;;6.52;96.64
70900;BME280;67902;52.154;5.430;2024-03-02T07:01:43;100151.19;;;6.54;95.94
70900;BME280;67902;52.154;5.430;2024-03-02T07:04:10;100159.47;;;6.52;95.31
70900;BME280;67902;52.154;5.430;2024-03-02T07:06:36;100149.53;;;6.53;95.56
70900;BME280;67902;52.154;5.430;2024-03-02T07:09:03;100154.09;;;6.52;95.70
70900;BME280;67902;52.154;5.430;2024-03-02T07:11:29;100151.19;;;6.54;95.21
70900;BME280;67902;52.154;5.430;2024-03-02T07:13:56;100157.47;;;6.59;95.11
70900;BME280;67902;52.154;5.430;2024-03-02T07:16:22;100147.88;;;6.63;95.17
70900;BME280;67902;52.154;5.430;2024-03-02T07:18:56;100147.97;;;6.68;95.53
70900;BME280;67902;52.154;5.430;2024-03-02T07:21:23;100155.13;;;6.74;94.56
70900;BME280;67902;52.154;5.430;2024-03-02T07:23:50;100158.84;;;6.85;94.05
70900;BME280;67902;52.154;5.430;2024-03-02T07:26:17;100153.13;;;6.93;93.71
70900;BME280;67902;52.154;5.430;2024-03-02T07:28:49;100165.94;;;7.03;92.56
70900;BME280;67902;52.154;5.430;2024-03-02T07:31:16;100168.75;;;7.08;91.40
70900;BME280;67902;52.154;5.430;2024-03-02T07:33:46;100171.09;;;7.16;92.00
70900;BME280;67902;52.154;5.430;2024-03-02T07:36:13;100171.84;;;7.28;91.70
70900;BME280;67902;52.154;5.430;2024-03-02T07:38:40;100175.56;;;7.38;91.13
70900;BME280;67902;52.154;5.430;2024-03-02T07:41:08;100170.47;;;7.53;90.52
70900;BME280;67902;52.154;5.430;2024-03-02T07:43:35;100173.81;;;8.34;89.89
70900;BME280;67902;52.154;5.430;2024-03-02T07:46:01;100180.00;;;8.51;86.98
70900;BME280;67902;52.154;5.430;2024-03-02T07:48:29;100172.69;;;9.50;82.65
70900;BME280;67902;52.154;5.430;2024-03-02T07:50:57;100178.16;;;9.55;80.76
70900;BME280;67902;52.154;5.430;2024-03-02T07:53:23;100197.03;;;9.28;80.68
70900;BME280;67902;52.154;5.430;2024-03-02T07:55:50;100182.09;;;9.20;81.14
70900;BME280;67902;52.154;5.430;2024-03-02T07:58:16;100190.06;;;8.72;83.25
70900;BME280;67902;52.154;5.430;2024-03-02T08:00:46;100185.66;;;8.66;83.89
70900;BME280;67902;52.154;5.430;2024-03-02T08:03:13;100197.34;;;8.71;83.50
70900;BME280;67902;52.154;5.430;2024-03-02T08:05:41;100199.97;;;8.50;84.27
70900;BME280;67902;52.154;5.430;2024-03-02T08:08:07;100201.13;;;8.37;83.28
70900;BME280;67902;52.154;5.430;2024-03-02T08:10:34;100200.38;;;8.25;84.89
70900;BME280;67902;52.154;5.430;2024-03-02T08:13:00;100208.22;;;8.43;86.05
70900;BME280;67902;52.154;5.430;2024-03-02T08:15:27;100205.69;;;8.53;84.24
70900;BME280;67902;52.154;5.430;2024-03-02T08:17:53;100217.06;;;8.55;84.22
70900;BME280;67902;52.154;5.430;2024-03-02T08:20:20;100213.13;;;8.46;83.29
70900;BME280;67902;52.154;5.430;2024-03-02T08:22:46;100221.56;;;8.50;82.92
70900;BME280;67902;52.154;5.430;2024-03-02T08:25:13;100210.19;;;8.81;82.26
70900;BME280;67902;52.154;5.430;2024-03-02T08:27:40;100208.97;;;9.54;79.75
70900;BME280;67902;52.154;5.430;2024-03-02T08:30:07;100198.72;;;10.68;75.83
70900;BME280;67902;52.154;5.430;2024-03-02T08:32:34;100200.59;;;11.71;71.76
70900;BME280;67902;52.154;5.430;2024-03-02T08:35:01;100205.81;;;13.19;65.94
70900;BME280;67902;52.154;5.430;2024-03-02T08:37:28;100193.53;;;13.85;62.97
70900;BME280;67902;52.154;5.430;2024-03-02T08:39:54;100193.22;;;13.87;59.94
70900;BME280;67902;52.154;5.430;2024-03-02T08:42:22;100196.88;;;13.67;61.10
70900;BME280;67902;52.154;5.430;2024-03-02T08:44:49;100193.81;;;13.79;60.35
70900;BME280;67902;52.154;5.430;2024-03-02T08:47:16;100203.81;;;13.93;59.45
70900;BME280;67902;52.154;5.430;2024-03-02T08:49:42;100213.50;;;14.54;57.48
70900;BME280;67902;52.154;5.430;2024-03-02T08:52:09;100206.31;;;14.91;56.64
70900;BME280;67902;52.154;5.430;2024-03-02T08:54:35;100208.72;;;15.22;55.51
70900;BME280;67902;52.154;5.430;2024-03-02T08:57:02;100206.44;;;14.81;54.38
70900;BME280;67902;52.154;5.430;2024-03-02T08:59:29;100194.31;;;14.92;55.54
70900;BME280;67902;52.154;5.430;2024-03-02T09:01:55;100203.69;;;15.34;54.48
70900;BME280;67902;52.154;5.430;2024-03-02T09:04:25;100203.09;;;15.37;53.01
70900;BME280;67902;52.154;5.430;2024-03-02T09:06:54;100204.72;;;14.90;54.10
70900;BME280;67902;52.154;5.430;2024-03-02T09:09:21;100206.00;;;14.98;53.46
70900;BME280;67902;52.154;5.430;2024-03-02T09:11:48;100202.06;;;15.09;52.74
70900;BME280;67902;52.154;5.430;2024-03-02T09:14:15;100212.09;;;15.14;52.79
70900;BME280;67902;52.154;5.430;2024-03-02T09:16:42;100195.66;;;15.19;52.18
70900;BME280;67902;52.154;5.430;2024-03-02T09:19:09;100203.22;;;15.27;52.30
70900;BME280;67902;52.154;5.430;2024-03-02T09:21:37;100208.09;;;15.30;51.78
70900;BME280;67902;52.154;5.430;2024-03-02T09:24:04;100206.53;;;16.27;50.46
70900;BME280;67902;52.154;5.430;2024-03-02T09:26:30;100206.09;;;16.71;48.33
70900;BME280;67902;52.154;5.430;2024-03-02T09:28:58;100198.69;;;17.17;48.03
70900;BME280;67902;52.154;5.430;2024-03-02T09:31:24;100212.84;;;16.92;46.43
70900;BME280;67902;52.154;5.430;2024-03-02T09:33:51;100223.91;;;16.68;47.15
70900;BME280;67902;52.154;5.430;2024-03-02T09:36:19;100212.59;;;16.75;46.03
70900;BME280;67902;52.154;5.430;2024-03-02T09:38:46;100226.84;;;16.58;45.93
70900;BME280;67902;52.154;5.430;2024-03-02T09:41:14;100218.84;;;15.87;46.95
70900;BME280;67902;52.154;5.430;2024-03-02T09:43:41;100216.06;;;16.30;47.08
70900;BME280;67902;52.154;5.430;2024-03-02T09:46:10;100218.56;;;16.77;45.25
70900;BME280;67902;52.154;5.430;2024-03-02T09:48:38;100220.03;;;16.56;44.60
70900;BME280;67902;52.154;5.430;2024-03-02T09:51:05;100231.44;;;16.76;45.34
70900;BME280;67902;52.154;5.430;2024-03-02T09:53:33;100213.47;;;16.38;45.49
70900;BME280;67902;52.154;5.430;2024-03-02T09:56:00;100217.53;;;16.73;45.19
70900;BME280;67902;52.154;5.430;2024-03-02T09:58:28;100220.53;;;16.90;43.52
70900;BME280;67902;52.154;5.430;2024-03-02T10:00:55;100223.25;;;16.90;43.94
70900;BME280;67902;52.154;5.430;2024-03-02T10:03:23;100234.03;;;16.68;42.81
70900;BME280;67902;52.154;5.430;2024-03-02T10:05:51;100219.47;;;17.46;43.98
70900;BME280;67902;52.154;5.430;2024-03-02T10:08:17;100230.22;;;17.15;43.21
70900;BME280;67902;52.154;5.430;2024-03-02T10:10:44;100222.84;;;17.29;43.85
70900;BME280;67902;52.154;5.430;2024-03-02T10:13:12;100220.59;;;17.45;44.46
70900;BME280;67902;52.154;5.430;2024-03-02T10:15:40;100216.94;;;17.35;42.91
70900;BME280;67902;52.154;5.430;2024-03-02T10:18:11;100216.81;;;17.00;43.50
70900;BME280;67902;52.154;5.430;2024-03-02T10:20:39;100212.41;;;16.85;42.50
70900;BME280;67902;52.154;5.430;2024-03-02T10:23:16;100213.47;;;17.44;43.19
70900;BME280;67902;52.154;5.430;2024-03-02T10:25:44;100219.97;;;17.20;43.03
70900;BME280;67902;52.154;5.430;2024-03-02T10:28:23;100199.88;;;17.93;41.61
70900;BME280;67902;52.154;5.430;2024-03-02T10:30:51;100219.38;;;18.14;40.95
70900;BME280;67902;52.154;5.430;2024-03-02T10:33:19;100217.44;;;17.78;41.33
70900;BME280;67902;52.154;5.430;2024-03-02T10:35:48;100213.47;;;17.30;41.16
70900;BME280;67902;52.154;5.430;2024-03-02T10:38:16;100197.56;;;17.18;42.23
70900;BME280;67902;52.154;5.430;2024-03-02T10:40:47;100205.19;;;17.49;42.89
70900;BME280;67902;52.154;5.430;2024-03-02T10:43:14;100213.31;;;17.54;41.22
70900;BME280;67902;52.154;5.430;2024-03-02T10:45:42;100197.53;;;18.22;41.39
70900;BME280;67902;52.154;5.430;2024-03-02T10:48:08;100197.88;;;18.65;39.38
70900;BME280;67902;52.154;5.430;2024-03-02T10:50:35;100196.72;;;18.58;39.67
70900;BME280;67902;52.154;5.430;2024-03-02T10:53:02;100178.81;;;18.16;40.58
70900;BME280;67902;52.154;5.430;2024-03-02T10:55:31;100184.06;;;17.49;41.08
70900;BME280;67902;52.154;5.430;2024-03-02T10:57:59;100181.28;;;17.54;41.75
70900;BME280;67902;52.154;5.430;2024-03-02T11:00:34;100174.59;;;18.85;40.09
70900;BME280;67902;52.154;5.430;2024-03-02T11:03:07;100164.13;;;18.87;40.55
70900;BME280;67902;52.154;5.430;2024-03-02T11:05:38;100165.41;;;18.89;39.34
70900;BME280;67902;52.154;5.430;2024-03-02T11:08:12;100164.19;;;19.04;39.36
70900;BME280;67902;52.154;5.430;2024-03-02T11:10:51;100176.56;;;18.62;40.27
70900;BME280;67902;52.154;5.430;2024-03-02T11:13:24;100179.75;;;18.86;38.89
70900;BME280;67902;52.154;5.430;2024-03-02T11:15:59;100169.50;;;18.70;38.88
70900;BME280;67902;52.154;5.430;2024-03-02T11:18:31;100176.69;;;19.19;37.05
70900;BME280;67902;52.154;5.430;2024-03-02T11:20:59;100169.25;;;19.50;38.30
70900;BME280;67902;52.154;5.430;2024-03-02T11:23:33;100196.22;;;18.86;36.54
70900;BME280;67902;52.154;5.430;2024-03-02T11:28:45;100181.09;;;19.28;37.81
70900;BME280;67902;52.154;5.430;2024-03-02T11:31:12;100183.34;;;19.74;36.84
70900;BME280;67902;52.154;5.430;2024-03-02T11:33:39;100163.97;;;19.31;36.79
70900;BME280;67902;52.154;5.430;2024-03-02T11:36:07;100161.91;;;19.37;37.09
70900;BME280;67902;52.154;5.430;2024-03-02T11:38:36;100170.31;;;19.01;36.80
70900;BME280;67902;52.154;5.430;2024-03-02T11:41:06;100180.75;;;18.90;37.55
70900;BME280;67902;52.154;5.430;2024-03-02T11:43:39;100171.41;;;18.61;36.67
70900;BME280;67902;52.154;5.430;2024-03-02T11:46:06;100162.53;;;18.19;37.21
70900;BME280;67902;52.154;5.430;2024-03-02T11:48:38;100155.25;;;18.59;38.01
70900;BME280;67902;52.154;5.430;2024-03-02T11:51:05;100144.09;;;19.26;38.54
70900;BME280;67902;52.154;5.430;2024-03-02T11:53:33;100166.59;;;19.36;35.99
70900;BME280;67902;52.154;5.430;2024-03-02T11:56:02;100161.03;;;19.19;35.47
70900;BME280;67902;52.154;5.430;2024-03-02T11:58:28;100147.25;;;19.02;34.74
70900;BME280;67902;52.154;5.430;2024-03-02T12:00:56;100138.13;;;19.24;35.88
70900;BME280;67902;52.154;5.430;2024-03-02T12:03:24;100132.28;;;19.64;37.91
70900;BME280;67902;52.154;5.430;2024-03-02T12:05:55;100154.88;;;19.53;35.17
70900;BME280;67902;52.154;5.430;2024-03-02T12:08:22;100143.91;;;19.96;35.58
70900;BME280;67902;52.154;5.430;2024-03-02T12:10:58;100126.31;;;20.31;36.05
70900;BME280;67902;52.154;5.430;2024-03-02T12:13:25;100129.13;;;20.60;33.35
70900;BME280;67902;52.154;5.430;2024-03-02T12:15:55;100116.78;;;20.83;33.76
70900;BME280;67902;52.154;5.430;2024-03-02T12:18:25;100108.38;;;21.18;33.33
70900;BME280;67902;52.154;5.430;2024-03-02T12:20:53;100102.13;;;21.59;32.57
70900;BME280;67902;52.154;5.430;2024-03-02T12:23:23;100114.38;;;21.20;34.77
70900;BME280;67902;52.154;5.430;2024-03-02T12:25:49;100106.97;;;21.12;35.08
70900;BME280;67902;52.154;5.430;2024-03-02T12:28:16;100119.69;;;20.32;34.15
70900;BME280;67902;52.154;5.430;2024-03-02T12:30:44;100114.63;;;20.51;35.66
70900;BME280;67902;52.154;5.430;2024-03-02T12:33:11;100107.16;;;21.36;35.09
70900;BME280;67902;52.154;5.430;2024-03-02T12:35:38;100091.66;;;20.94;33.17
70900;BME280;67902;52.154;5.430;2024-03-02T12:38:05;100105.25;;;20.35;35.11
70900;BME280;67902;52.154;5.430;2024-03-02T12:40:32;100103.47;;;20.39;35.21
70900;BME280;67902;52.154;5.430;2024-03-02T12:42:58;100100.91;;;20.08;36.72
70900;BME280;67902;52.154;5.430;2024-03-02T12:45:25;100112.88;;;20.30;36.71
70900;BME280;67902;52.154;5.430;2024-03-02T12:47:52;100100.91;;;20.08;36.83
70900;BME280;67902;52.154;5.430;2024-03-02T12:50:20;100088.72;;;20.52;35.91
70900;BME280;67902;52.154;5.430;2024-03-02T12:52:53;100080.91;;;21.09;34.86
70900;BME280;67902;52.154;5.430;2024-03-02T12:55:21;100078.81;;;20.68;34.67
70900;BME280;67902;52.154;5.430;2024-03-02T12:57:52;100084.22;;;20.48;36.21
70900;BME280;67902;52.154;5.430;2024-03-02T13:00:20;100074.25;;;19.92;35.05
70900;BME280;67902;52.154;5.430;2024-03-02T13:02:48;100072.78;;;20.03;36.64
70900;BME280;67902;52.154;5.430;2024-03-02T13:05:18;100068.28;;;20.70;36.44
70900;BME280;67902;52.154;5.430;2024-03-02T13:07:47;100071.97;;;20.11;35.61